Diosdado Macapagal International Airport


Codes: RPLC/CRK
Name: Diosdado Macapagal International Airport
City: Angeles City
Country: Philippines
Elevation: 484 ft.
Website:
Wikipedia:

Photos at Diosdado Macapagal International Airport


   Photos courtesy of SpottingLog. You can add your own sightings and photos by signing up for a free trial today.



No photos found.

Weather at Diosdado Macapagal International Airport


Time (UTC)DescriptionTempratureWindCloud coverageVisibilityPressureHumidity
18-Apr-2024 00:00Broken Clouds27°C2 mph, E51%10000m1011hPa72%
18-Apr-2024 03:00Scattered Clouds32°C7 mph, E39%10000m1010hPa50%
18-Apr-2024 06:00Scattered Clouds39°C7 mph, E47%10000m1006hPa24%
18-Apr-2024 09:00Scattered Clouds35°C11 mph, W47%10000m1006hPa38%
18-Apr-2024 12:00Broken Clouds28°C2 mph, NE74%10000m1009hPa59%
18-Apr-2024 15:00Overcast Clouds25°C2 mph, NE90%10000m1010hPa60%
18-Apr-2024 18:00Overcast Clouds24°C2 mph, NW95%10000m1010hPa67%
18-Apr-2024 21:00Overcast Clouds23°C2 mph, NW100%10000m1010hPa81%
19-Apr-2024 00:00Overcast Clouds29°C2 mph, E100%10000m1011hPa58%
19-Apr-2024 03:00Overcast Clouds35°C7 mph, SE100%10000m1010hPa36%
19-Apr-2024 06:00Overcast Clouds38°C9 mph, SE100%10000m1006hPa26%
19-Apr-2024 09:00Broken Clouds36°C16 mph, S62%10000m1006hPa27%
19-Apr-2024 12:00Broken Clouds29°C2 mph, NE77%10000m1009hPa47%
19-Apr-2024 15:00Scattered Clouds25°C0 mph, N40%10000m1011hPa70%
19-Apr-2024 18:00Broken Clouds24°C2 mph, NW66%10000m1010hPa78%
19-Apr-2024 21:00Overcast Clouds23°C2 mph, W97%10000m1010hPa82%
20-Apr-2024 00:00Overcast Clouds28°C2 mph, E99%10000m1012hPa60%
20-Apr-2024 03:00Overcast Clouds34°C7 mph, SE100%10000m1010hPa33%
20-Apr-2024 06:00Overcast Clouds38°C9 mph, SE96%10000m1007hPa20%
20-Apr-2024 09:00Clear Sky37°C11 mph, SE0%10000m1006hPa21%
20-Apr-2024 12:00Clear Sky28°C4 mph, N0%10000m1010hPa50%
20-Apr-2024 15:00Clear Sky25°C4 mph, N6%10000m1010hPa74%
20-Apr-2024 18:00Few Clouds24°C4 mph, NW11%10000m1010hPa81%
20-Apr-2024 21:00Clear Sky23°C2 mph, NW6%10000m1010hPa89%
21-Apr-2024 00:00Clear Sky29°C4 mph, E3%10000m1012hPa60%
21-Apr-2024 03:00Few Clouds36°C7 mph, E18%10000m1010hPa28%
21-Apr-2024 06:00Scattered Clouds39°C11 mph, SE41%10000m1007hPa21%
21-Apr-2024 09:00Few Clouds36°C11 mph, S20%10000m1006hPa29%
21-Apr-2024 12:00Scattered Clouds28°C2 mph, NW26%10000m1010hPa57%
21-Apr-2024 15:00Overcast Clouds25°C2 mph, N88%10000m1011hPa74%
21-Apr-2024 18:00Overcast Clouds24°C4 mph, N92%10000m1009hPa79%
21-Apr-2024 21:00Overcast Clouds23°C2 mph, N99%10000m1010hPa86%
22-Apr-2024 00:00Overcast Clouds28°C4 mph, NE94%10000m1011hPa61%
22-Apr-2024 03:00Few Clouds36°C7 mph, SE20%10000m1009hPa31%
22-Apr-2024 06:00Scattered Clouds39°C11 mph, SE26%10000m1005hPa26%
22-Apr-2024 09:00Scattered Clouds36°C13 mph, S27%10000m1005hPa33%
22-Apr-2024 12:00Scattered Clouds30°C2 mph, SW42%10000m1008hPa56%
22-Apr-2024 15:00Scattered Clouds26°C2 mph, E49%10000m1010hPa73%
22-Apr-2024 18:00Scattered Clouds25°C2 mph, N34%10000m1009hPa78%
22-Apr-2024 21:00Few Clouds24°C4 mph, N24%10000m1009hPa84%